createdAt,value
2018-08-23T00:01:28.612Z,38
2018-08-23T00:11:33.151Z,40
2018-08-23T00:21:27.278Z,39
2018-08-23T00:31:30.285Z,39
2018-08-23T00:41:27.232Z,38
2018-08-23T00:51:28.640Z,40
2018-08-23T01:01:34.540Z,38
2018-08-23T01:11:32.838Z,38
2018-08-23T01:21:36.142Z,38
2018-08-23T01:31:28.573Z,38
2018-08-23T01:41:27.763Z,40
2018-08-23T01:51:27.698Z,39
2018-08-23T02:01:28.204Z,39
2018-08-23T02:11:38.633Z,38
2018-08-23T02:21:33.564Z,40
2018-08-23T02:31:31.745Z,38
2018-08-23T02:41:30.247Z,38
2018-08-23T02:51:29.020Z,39
2018-08-23T03:01:30.890Z,39
2018-08-23T03:11:27.023Z,40
2018-08-23T03:21:27.829Z,39
2018-08-23T03:31:30.207Z,39
2018-08-23T03:41:29.373Z,38
2018-08-23T03:51:28.650Z,40
2018-08-23T04:01:28.102Z,39
2018-08-23T04:11:29.282Z,38
2018-08-23T04:21:29.087Z,39
2018-08-23T04:31:28.564Z,38
2018-08-23T04:41:27.572Z,38
2018-08-23T04:51:30.458Z,39
2018-08-23T05:01:32.852Z,39
2018-08-23T05:11:29.445Z,39
2018-08-23T05:21:27.901Z,40
2018-08-23T05:31:27.310Z,39
2018-08-23T05:41:31.691Z,38
2018-08-23T05:51:29.778Z,39
2018-08-23T06:01:29.381Z,39
2018-08-23T06:11:28.611Z,40
2018-08-23T06:21:28.089Z,40
2018-08-23T06:31:35.361Z,39
2018-08-23T06:41:29.635Z,37
2018-08-23T06:51:27.776Z,37
2018-08-23T07:01:28.821Z,38
2018-08-23T07:11:27.788Z,38
2018-08-23T07:21:28.521Z,41
2018-08-23T07:31:28.448Z,38
2018-08-23T07:41:28.257Z,38
2018-08-23T07:51:27.590Z,38
2018-08-23T08:01:27.574Z,40
2018-08-23T08:11:28.674Z,38
2018-08-23T08:21:28.117Z,41
2018-08-23T08:31:30.070Z,36
2018-08-23T08:41:26.974Z,37
2018-08-23T08:51:29.620Z,36
2018-08-23T09:01:27.506Z,36
2018-08-23T09:11:27.443Z,40
2018-08-23T09:21:27.752Z,40
2018-08-23T09:31:31.677Z,36
2018-08-23T09:41:27.549Z,36
2018-08-23T09:51:27.543Z,39
2018-08-23T10:01:27.882Z,39
2018-08-23T10:11:27.479Z,37
2018-08-23T10:21:29.763Z,36
2018-08-23T10:31:28.927Z,37
2018-08-23T10:41:27.663Z,36
2018-08-23T10:51:27.001Z,36
2018-08-23T11:01:28.407Z,39
2018-08-23T11:11:28.504Z,35
2018-08-23T11:21:27.699Z,35
2018-08-23T11:31:44.041Z,35
2018-08-23T11:41:28.011Z,35
2018-08-23T11:51:29.967Z,37
2018-08-23T12:01:27.277Z,38
2018-08-23T12:11:28.308Z,35
2018-08-23T12:21:27.548Z,35
2018-08-23T12:31:28.412Z,35
2018-08-23T12:41:27.782Z,36
2018-08-23T12:51:27.920Z,36
2018-08-23T13:01:27.433Z,36
2018-08-23T13:11:27.575Z,35
2018-08-23T13:21:33.862Z,35
2018-08-23T13:31:35.152Z,34
2018-08-23T13:41:27.607Z,35
2018-08-23T13:51:29.692Z,34
2018-08-23T14:01:29.483Z,36
2018-08-23T14:11:33.029Z,35
2018-08-23T14:21:27.551Z,35
2018-08-23T14:31:33.089Z,34
2018-08-23T14:41:27.772Z,34
2018-08-23T14:51:34.139Z,34
2018-08-23T15:01:43.924Z,35
2018-08-23T15:11:34.280Z,33
2018-08-23T15:21:31.001Z,33
2018-08-23T15:31:27.322Z,35
2018-08-23T15:41:28.745Z,33
2018-08-23T15:51:33.515Z,35
2018-08-23T16:01:33.094Z,34
2018-08-23T16:11:34.113Z,33
2018-08-23T16:22:00.104Z,34
2018-08-23T16:31:32.869Z,35
2018-08-23T16:41:47.877Z,34
2018-08-23T16:51:40.959Z,35
2018-08-23T17:01:43.304Z,34
2018-08-23T17:11:27.271Z,33
2018-08-23T17:21:34.581Z,34
2018-08-23T17:31:33.951Z,34
2018-08-23T17:41:34.913Z,34
2018-08-23T17:51:27.500Z,35
2018-08-23T18:01:28.359Z,35
2018-08-23T18:11:27.793Z,34
2018-08-23T18:21:28.206Z,35
2018-08-23T18:31:28.342Z,34
2018-08-23T18:41:27.352Z,34
2018-08-23T18:51:27.741Z,37
2018-08-23T19:01:33.769Z,36
2018-08-23T19:11:28.290Z,35
2018-08-23T19:21:27.625Z,34
2018-08-23T19:31:28.360Z,37
2018-08-23T19:41:27.811Z,37
2018-08-23T19:51:28.125Z,37
2018-08-23T20:01:28.056Z,35
2018-08-23T20:11:29.417Z,35
2018-08-23T20:21:27.748Z,35
2018-08-23T20:31:29.268Z,36
2018-08-23T20:41:28.968Z,37
2018-08-23T20:51:28.297Z,35
2018-08-23T21:01:33.121Z,38
2018-08-23T21:11:27.087Z,36
2018-08-23T21:21:28.807Z,35
2018-08-23T21:31:30.591Z,36
2018-08-23T21:41:28.403Z,37
2018-08-23T21:51:28.914Z,35
2018-08-23T22:01:27.362Z,38
2018-08-23T22:11:28.510Z,36
2018-08-23T22:21:28.835Z,37
2018-08-23T22:31:28.647Z,37
2018-08-23T22:41:29.319Z,37
2018-08-23T22:51:27.083Z,36
2018-08-23T23:01:27.625Z,39
2018-08-23T23:11:33.648Z,39
2018-08-23T23:21:27.198Z,39
2018-08-23T23:31:33.268Z,37
2018-08-23T23:41:33.680Z,37
2018-08-23T23:51:29.226Z,39
